createdAt,value
2018-01-12T00:01:01.075Z,0
2018-01-12T00:02:09.605Z,0
2018-01-12T00:03:18.665Z,0
2018-01-12T00:04:27.458Z,0
2018-01-12T00:05:36.248Z,0
2018-01-12T00:06:44.780Z,0
2018-01-12T00:07:54.109Z,0
2018-01-12T00:09:02.899Z,0
2018-01-12T00:10:11.428Z,0
2018-01-12T00:11:19.958Z,0
2018-01-12T00:12:29.019Z,0
2018-01-12T00:13:37.541Z,0
2018-01-12T00:14:46.335Z,0
2018-01-12T00:15:55.131Z,0
2018-01-12T00:17:03.921Z,0
2018-01-12T00:18:12.450Z,0
2018-01-12T00:19:21.241Z,0
2018-01-12T00:20:29.763Z,0
2018-01-12T00:21:38.564Z,0
2018-01-12T00:22:47.360Z,0
2018-01-12T00:23:55.882Z,0
2018-01-12T00:25:04.946Z,0
2018-01-12T00:26:14.504Z,0
2018-01-12T00:27:23.027Z,0
2018-01-12T00:28:32.079Z,0
2018-01-12T00:29:40.603Z,0
2018-01-12T00:30:49.397Z,0
2018-01-12T00:31:58.188Z,0
2018-01-12T00:33:06.711Z,0
2018-01-12T00:34:15.236Z,0
2018-01-12T00:35:24.295Z,0
2018-01-12T00:36:33.086Z,0
2018-01-12T00:37:41.610Z,0
2018-01-12T00:38:50.399Z,0
2018-01-12T00:39:59.450Z,0
2018-01-12T00:41:08.239Z,0
2018-01-12T00:42:17.290Z,0
2018-01-12T00:43:26.082Z,0
2018-01-12T00:44:34.873Z,0
2018-01-12T00:45:43.397Z,0
2018-01-12T00:46:51.932Z,0
2018-01-12T00:48:00.723Z,0
2018-01-12T00:49:09.517Z,0
2018-01-12T00:50:18.580Z,0
2018-01-12T00:51:27.367Z,0
2018-01-12T00:52:35.891Z,0
2018-01-12T00:53:44.946Z,0
2018-01-12T00:54:53.470Z,0
2018-01-12T00:56:01.994Z,0
2018-01-12T00:57:10.786Z,0
2018-01-12T00:58:19.312Z,0
2018-01-12T00:59:28.108Z,0
2018-01-12T01:00:37.162Z,0
2018-01-12T01:01:45.953Z,0
2018-01-12T01:02:54.741Z,0
2018-01-12T01:04:03.801Z,0
2018-01-12T01:05:12.855Z,0
2018-01-12T01:06:21.642Z,0
2018-01-12T01:07:30.694Z,0
2018-01-12T01:08:39.482Z,0
2018-01-12T01:09:48.008Z,0
2018-01-12T01:10:56.534Z,0
2018-01-12T01:12:05.326Z,0
2018-01-12T01:13:14.112Z,0
2018-01-12T01:14:23.182Z,0
2018-01-12T01:15:32.244Z,0
2018-01-12T01:16:41.564Z,0
2018-01-12T01:17:50.743Z,0
2018-01-12T01:18:59.533Z,0
2018-01-12T01:20:08.324Z,0
2018-01-12T01:21:17.114Z,0
2018-01-12T01:22:25.896Z,0
2018-01-12T01:23:34.686Z,0
2018-01-12T01:24:44.005Z,0
2018-01-12T01:25:52.528Z,0
2018-01-12T01:27:01.582Z,0
2018-01-12T01:28:10.368Z,0
2018-01-12T01:29:19.163Z,0
2018-01-12T01:30:27.687Z,0
2018-01-12T01:31:37.010Z,0
2018-01-12T01:32:45.801Z,0
2018-01-12T01:33:54.325Z,0
2018-01-12T01:35:03.494Z,0
2018-01-12T01:36:12.551Z,0
2018-01-12T01:37:21.341Z,0
2018-01-12T01:38:29.869Z,0
2018-01-12T01:39:38.394Z,0
2018-01-12T01:40:47.184Z,0
2018-01-12T01:41:55.974Z,0
2018-01-12T01:43:04.498Z,0
2018-01-12T01:44:13.022Z,0
2018-01-12T01:45:21.546Z,0
2018-01-12T01:46:30.073Z,0
2018-01-12T01:47:38.861Z,0
2018-01-12T01:48:47.385Z,0
2018-01-12T01:49:55.909Z,0
2018-01-12T01:51:04.969Z,0
2018-01-12T01:52:13.762Z,0
2018-01-12T01:53:22.815Z,0
2018-01-12T01:54:31.604Z,0
2018-01-12T01:55:41.330Z,0
2018-01-12T01:56:50.116Z,0
2018-01-12T01:57:58.642Z,0
2018-01-12T01:59:07.172Z,0
2018-01-12T02:00:15.692Z,0
2018-01-12T02:01:24.484Z,0
2018-01-12T02:02:33.273Z,0
2018-01-12T02:03:41.798Z,0
2018-01-12T02:04:50.587Z,0
2018-01-12T02:05:59.382Z,0
2018-01-12T02:07:08.176Z,0
2018-01-12T02:08:16.985Z,0
2018-01-12T02:09:25.776Z,0
2018-01-12T02:10:34.566Z,0
2018-01-12T02:11:43.354Z,0
2018-01-12T02:12:51.876Z,0
2018-01-12T02:14:00.665Z,0
2018-01-12T02:15:09.454Z,0
2018-01-12T02:16:18.247Z,0
2018-01-12T02:17:27.303Z,0
2018-01-12T02:18:35.830Z,0
2018-01-12T02:19:44.619Z,0
2018-01-12T02:20:53.408Z,0
2018-01-12T02:22:01.933Z,0
2018-01-12T02:23:10.455Z,0
2018-01-12T02:24:19.508Z,0
2018-01-12T02:25:28.296Z,0
2018-01-12T02:26:37.084Z,0
2018-01-12T02:27:46.141Z,0
2018-01-12T02:28:54.939Z,0
2018-01-12T02:30:03.725Z,0
2018-01-12T02:31:12.788Z,0
2018-01-12T02:32:21.579Z,0
2018-01-12T02:33:30.378Z,0
2018-01-12T02:34:39.447Z,0
2018-01-12T02:35:48.238Z,0
2018-01-12T02:36:57.030Z,0
2018-01-12T02:38:05.554Z,0
2018-01-12T02:39:14.341Z,0
2018-01-12T02:40:23.134Z,0
2018-01-12T02:41:31.660Z,0
2018-01-12T02:42:40.183Z,0
2018-01-12T02:43:48.973Z,0
2018-01-12T02:44:57.497Z,0
2018-01-12T02:46:06.292Z,0
2018-01-12T02:47:15.352Z,0
2018-01-12T02:48:23.877Z,0
2018-01-12T02:49:32.933Z,0
2018-01-12T02:50:41.723Z,0
2018-01-12T02:51:50.520Z,0
2018-01-12T02:52:59.047Z,0
2018-01-12T02:54:08.368Z,0
2018-01-12T02:55:17.160Z,0
2018-01-12T02:56:25.685Z,0
2018-01-12T02:57:34.212Z,0
2018-01-12T02:58:43.006Z,0
2018-01-12T02:59:52.603Z,0
2018-01-12T03:01:01.659Z,0
2018-01-12T03:02:10.452Z,0
2018-01-12T03:03:18.976Z,0
2018-01-12T03:04:27.508Z,0
2018-01-12T03:05:36.298Z,0
2018-01-12T03:06:45.092Z,0
2018-01-12T03:07:53.878Z,0
2018-01-12T03:09:02.665Z,0
2018-01-12T03:10:11.461Z,0
2018-01-12T03:11:20.250Z,0
2018-01-12T03:12:29.043Z,0
2018-01-12T03:13:37.832Z,0
2018-01-12T03:14:46.621Z,0
2018-01-12T03:15:55.676Z,0
2018-01-12T03:17:04.203Z,0
2018-01-12T03:18:12.995Z,0
2018-01-12T03:19:21.519Z,0
2018-01-12T03:20:30.308Z,0
2018-01-12T03:21:39.102Z,0
2018-01-12T03:22:48.160Z,0
2018-01-12T03:23:56.949Z,0
2018-01-12T03:25:05.838Z,0
2018-01-12T03:26:14.891Z,0
2018-01-12T03:27:23.416Z,0
2018-01-12T03:28:31.941Z,0
2018-01-12T03:29:40.728Z,0
2018-01-12T03:30:49.256Z,0
2018-01-12T03:31:57.781Z,0
2018-01-12T03:33:06.572Z,0
2018-01-12T03:34:15.101Z,0
2018-01-12T03:35:23.621Z,0
2018-01-12T03:36:32.409Z,0
2018-01-12T03:37:41.197Z,0
2018-01-12T03:38:49.988Z,0
2018-01-12T03:39:58.776Z,0
2018-01-12T03:41:07.312Z,0
2018-01-12T03:42:16.367Z,0
2018-01-12T03:43:24.893Z,0
2018-01-12T03:44:34.483Z,0
2018-01-12T03:45:43.006Z,0
2018-01-12T03:46:51.796Z,0
2018-01-12T03:48:00.590Z,0
2018-01-12T03:49:09.381Z,0
2018-01-12T03:50:18.174Z,0
2018-01-12T03:51:26.966Z,0
2018-01-12T03:52:35.756Z,0
2018-01-12T03:53:44.865Z,0
2018-01-12T03:54:53.652Z,0
2018-01-12T03:56:02.708Z,0
2018-01-12T03:57:11.501Z,0
2018-01-12T03:58:20.290Z,0
2018-01-12T03:59:28.817Z,0
2018-01-12T04:00:37.871Z,0
2018-01-12T04:01:46.666Z,0
2018-01-12T04:02:55.455Z,0
2018-01-12T04:04:03.980Z,0
2018-01-12T04:05:13.037Z,0
2018-01-12T04:06:21.839Z,0
2018-01-12T04:07:31.163Z,0
2018-01-12T04:08:39.734Z,0
2018-01-12T04:09:48.214Z,0
2018-01-12T04:10:57.268Z,0
2018-01-12T04:12:05.792Z,0
2018-01-12T04:13:14.582Z,0
2018-01-12T04:14:23.371Z,0
2018-01-12T04:15:32.160Z,0
2018-01-12T04:16:41.222Z,0
2018-01-12T04:17:50.014Z,0
2018-01-12T04:18:59.069Z,0
2018-01-12T04:20:08.385Z,0
2018-01-12T04:21:17.485Z,0
2018-01-12T04:22:26.013Z,0
2018-01-12T04:23:34.802Z,0
2018-01-12T04:24:43.857Z,0
2018-01-12T04:25:52.658Z,0
2018-01-12T04:27:01.451Z,0
2018-01-12T04:28:09.973Z,0
2018-01-12T04:29:18.764Z,0
2018-01-12T04:30:27.817Z,0
2018-01-12T04:31:36.616Z,0
2018-01-12T04:32:45.405Z,0
2018-01-12T04:33:53.932Z,0
2018-01-12T04:35:02.456Z,0
2018-01-12T04:36:10.982Z,0
2018-01-12T04:37:20.037Z,0
2018-01-12T04:38:28.563Z,0
2018-01-12T04:39:37.618Z,0
2018-01-12T04:40:46.406Z,0
2018-01-12T04:41:56.007Z,0
2018-01-12T04:43:04.529Z,0
2018-01-12T04:44:13.582Z,0
2018-01-12T04:45:22.900Z,0
2018-01-12T04:46:31.960Z,0
2018-01-12T04:47:40.486Z,0
2018-01-12T04:48:49.277Z,0
2018-01-12T04:49:57.799Z,0
2018-01-12T04:51:06.325Z,0
2018-01-12T04:52:15.647Z,0
2018-01-12T04:53:24.172Z,0
2018-01-12T04:54:32.698Z,0
2018-01-12T04:55:41.642Z,0
2018-01-12T04:56:50.179Z,0
2018-01-12T04:57:58.981Z,0
2018-01-12T04:59:07.782Z,0
2018-01-12T05:00:16.321Z,0
2018-01-12T05:01:25.378Z,0
2018-01-12T05:02:33.909Z,0
2018-01-12T05:03:42.704Z,0
2018-01-12T05:04:51.508Z,0
2018-01-12T05:06:00.314Z,0
2018-01-12T05:07:08.848Z,0
2018-01-12T05:08:17.915Z,0
2018-01-12T05:09:27.120Z,0
2018-01-12T05:10:35.653Z,0
2018-01-12T05:11:44.455Z,0
2018-01-12T05:12:53.083Z,0
2018-01-12T05:14:01.615Z,0
2018-01-12T05:15:10.416Z,0
2018-01-12T05:16:19.214Z,0
2018-01-12T05:17:28.013Z,0
2018-01-12T05:18:36.811Z,0
2018-01-12T05:19:45.877Z,0
2018-01-12T05:20:54.410Z,0
2018-01-12T05:22:02.942Z,0
2018-01-12T05:23:11.473Z,0
2018-01-12T05:24:19.997Z,0
2018-01-12T05:25:29.054Z,0
2018-01-12T05:26:38.109Z,0
2018-01-12T05:27:47.250Z,0
2018-01-12T05:28:55.711Z,0
2018-01-12T05:30:04.501Z,0
2018-01-12T05:31:13.292Z,0
2018-01-12T05:32:22.086Z,0
2018-01-12T05:33:30.882Z,0
2018-01-12T05:34:39.411Z,0
2018-01-12T05:35:48.205Z,0
2018-01-12T05:36:56.997Z,0
2018-01-12T05:38:05.786Z,0
2018-01-12T05:39:14.840Z,0
2018-01-12T05:40:23.631Z,0
2018-01-12T05:41:32.686Z,0
2018-01-12T05:42:41.219Z,0
2018-01-12T05:43:50.012Z,0
2018-01-12T05:44:59.066Z,0
2018-01-12T05:46:07.591Z,0
2018-01-12T05:47:16.639Z,0
2018-01-12T05:48:25.173Z,0
2018-01-12T05:49:33.966Z,0
2018-01-12T05:50:42.760Z,0
2018-01-12T05:51:51.817Z,0
2018-01-12T05:53:00.340Z,0
2018-01-12T05:54:09.732Z,0
2018-01-12T05:55:18.789Z,0
2018-01-12T05:56:27.579Z,0
2018-01-12T05:57:36.102Z,0
2018-01-12T05:58:44.628Z,0
2018-01-12T05:59:53.421Z,0
2018-01-12T06:01:01.945Z,0
2018-01-12T06:02:11.004Z,0
2018-01-12T06:03:19.875Z,0
2018-01-12T06:04:28.932Z,0
2018-01-12T06:05:37.987Z,0
2018-01-12T06:06:46.775Z,0
2018-01-12T06:07:55.836Z,0
2018-01-12T06:09:04.370Z,0
2018-01-12T06:10:13.156Z,0
2018-01-12T06:11:21.687Z,0
2018-01-12T06:12:30.208Z,0
2018-01-12T06:13:38.996Z,0
2018-01-12T06:14:47.521Z,0
2018-01-12T06:15:56.362Z,0
2018-01-12T06:17:05.441Z,0
2018-01-12T06:18:14.502Z,0
2018-01-12T06:19:23.823Z,0
2018-01-12T06:20:32.613Z,0
2018-01-12T06:21:41.142Z,0
2018-01-12T06:22:49.667Z,0
2018-01-12T06:23:58.192Z,0
2018-01-12T06:25:07.250Z,0
2018-01-12T06:26:16.583Z,0
2018-01-12T06:27:25.639Z,0
2018-01-12T06:28:34.165Z,0
2018-01-12T06:29:42.687Z,0
2018-01-12T06:30:51.211Z,0
2018-01-12T06:32:00.808Z,0
2018-01-12T06:33:09.850Z,0
2018-01-12T06:34:18.375Z,0
2018-01-12T06:35:26.899Z,0
2018-01-12T06:36:35.691Z,0
2018-01-12T06:37:44.483Z,0
2018-01-12T06:38:53.274Z,0
2018-01-12T06:40:02.066Z,0
2018-01-12T06:41:10.856Z,0
2018-01-12T06:42:19.648Z,0
2018-01-12T06:43:28.701Z,0
2018-01-12T06:44:37.224Z,0
2018-01-12T06:45:45.748Z,0
2018-01-12T06:46:54.811Z,0
2018-01-12T06:48:03.603Z,0
2018-01-12T06:49:12.393Z,0
2018-01-12T06:50:20.917Z,0
2018-01-12T06:51:29.450Z,0
2018-01-12T06:52:38.496Z,0
2018-01-12T06:53:47.554Z,0
2018-01-12T06:54:56.341Z,0
2018-01-12T06:56:04.866Z,0
2018-01-12T06:57:13.394Z,0
2018-01-12T06:58:22.184Z,0
2018-01-12T06:59:30.982Z,0
2018-01-12T07:00:40.029Z,0
2018-01-12T07:01:48.821Z,0
2018-01-12T07:02:57.613Z,0
2018-01-12T07:04:06.400Z,0
2018-01-12T07:05:15.193Z,0
2018-01-12T07:06:23.980Z,0
2018-01-12T07:07:32.507Z,0
2018-01-12T07:08:41.298Z,0
2018-01-12T07:09:50.354Z,0
2018-01-12T07:10:59.412Z,0
2018-01-12T07:12:08.208Z,0
2018-01-12T07:13:16.735Z,0
2018-01-12T07:14:25.261Z,0
2018-01-12T07:15:34.052Z,0
2018-01-12T07:16:42.576Z,0
2018-01-12T07:17:51.098Z,0
2018-01-12T07:18:59.889Z,0
2018-01-12T07:20:08.412Z,0
2018-01-12T07:21:16.932Z,0
2018-01-12T07:22:25.724Z,0
2018-01-12T07:23:34.619Z,0
2018-01-12T07:24:43.443Z,0
2018-01-12T07:25:52.170Z,0
2018-01-12T07:27:00.821Z,0
2018-01-12T07:28:09.616Z,0
2018-01-12T07:29:18.144Z,0
2018-01-12T07:30:26.670Z,0
2018-01-12T07:31:35.463Z,0
2018-01-12T07:32:44.252Z,0
2018-01-12T07:33:53.308Z,0
2018-01-12T07:35:02.365Z,0
2018-01-12T07:36:11.175Z,0
2018-01-12T07:37:19.672Z,0
2018-01-12T07:38:28.460Z,0
2018-01-12T07:39:37.516Z,0
2018-01-12T07:40:46.307Z,5
2018-01-12T07:41:55.627Z,5
2018-01-12T07:43:04.952Z,5
2018-01-12T07:44:13.733Z,5
2018-01-12T07:45:22.263Z,5
2018-01-12T07:46:31.049Z,5
2018-01-12T07:47:39.572Z,5
2018-01-12T07:48:48.627Z,5
2018-01-12T07:49:57.152Z,5
2018-01-12T07:51:05.675Z,5
2018-01-12T07:52:14.733Z,5
2018-01-12T07:53:23.791Z,5
2018-01-12T07:54:32.578Z,5
2018-01-12T07:55:41.366Z,5
2018-01-12T07:56:50.694Z,5
2018-01-12T07:57:59.494Z,5
2018-01-12T07:59:08.293Z,10
2018-01-12T08:00:17.090Z,10
2018-01-12T08:01:25.615Z,10
2018-01-12T08:02:34.414Z,10
2018-01-12T08:03:43.207Z,10
2018-01-12T08:04:51.998Z,10
2018-01-12T08:06:00.791Z,10
2018-01-12T08:07:09.317Z,10
2018-01-12T08:08:18.106Z,10
2018-01-12T08:09:26.631Z,10
2018-01-12T08:10:35.907Z,10
2018-01-12T08:11:44.429Z,10
2018-01-12T08:12:53.217Z,10
2018-01-12T08:14:02.533Z,10
2018-01-12T08:15:11.067Z,10
2018-01-12T08:16:20.121Z,15
2018-01-12T08:17:29.172Z,15
2018-01-12T08:18:37.696Z,15
2018-01-12T08:19:46.223Z,15
2018-01-12T08:20:55.277Z,15
2018-01-12T08:22:03.802Z,15
2018-01-12T08:23:12.324Z,15
2018-01-12T08:24:21.115Z,15
2018-01-12T08:25:30.439Z,15
2018-01-12T08:26:39.228Z,15
2018-01-12T08:27:48.282Z,15
2018-01-12T08:28:57.603Z,15
2018-01-12T08:30:06.927Z,15
2018-01-12T08:31:15.715Z,15
2018-01-12T08:32:24.239Z,15
2018-01-12T08:33:33.029Z,15
2018-01-12T08:34:42.082Z,15
2018-01-12T08:35:50.869Z,15
2018-01-12T08:36:59.395Z,20
2018-01-12T08:38:08.656Z,25
2018-01-12T08:39:17.709Z,25
2018-01-12T08:40:26.497Z,25
2018-01-12T08:41:35.020Z,25
2018-01-12T08:42:43.807Z,20
2018-01-12T08:43:52.859Z,20
2018-01-12T08:45:01.384Z,20
2018-01-12T08:46:10.174Z,20
2018-01-12T08:47:18.965Z,15
2018-01-12T08:48:27.757Z,20
2018-01-12T08:49:36.552Z,20
2018-01-12T08:50:45.335Z,25
2018-01-12T08:51:54.122Z,25
2018-01-12T08:53:03.178Z,25
2018-01-12T08:54:11.968Z,25
2018-01-12T08:55:20.758Z,30
2018-01-12T08:56:29.547Z,30
2018-01-12T08:57:38.071Z,30
2018-01-12T08:58:46.862Z,30
2018-01-12T08:59:55.967Z,30
2018-01-12T09:01:04.713Z,30
2018-01-12T09:02:13.239Z,30
2018-01-12T09:03:22.558Z,30
2018-01-12T09:04:31.615Z,30
2018-01-12T09:05:40.407Z,35
2018-01-12T09:06:48.930Z,35
2018-01-12T09:07:57.454Z,35
2018-01-12T09:09:06.242Z,35
2018-01-12T09:10:15.037Z,35
2018-01-12T09:11:24.092Z,35
2018-01-12T09:12:32.879Z,30
2018-01-12T09:13:41.403Z,30
2018-01-12T09:14:49.932Z,30
2018-01-12T09:15:58.984Z,30
2018-01-12T09:17:07.512Z,30
2018-01-12T09:18:16.566Z,35
2018-01-12T09:19:25.088Z,35
2018-01-12T09:20:33.877Z,40
2018-01-12T09:21:43.229Z,45
2018-01-12T09:22:52.585Z,45
2018-01-12T09:24:01.114Z,50
2018-01-12T09:25:09.904Z,50
2018-01-12T09:26:18.426Z,50
2018-01-12T09:27:27.214Z,50
2018-01-12T09:28:35.739Z,45
2018-01-12T09:29:44.262Z,45
2018-01-12T09:30:53.059Z,45
2018-01-12T09:32:02.380Z,45
2018-01-12T09:33:11.167Z,45
2018-01-12T09:34:19.893Z,45
2018-01-12T09:35:29.239Z,50
2018-01-12T09:36:38.060Z,50
2018-01-12T09:37:46.541Z,50
2018-01-12T09:38:55.065Z,50
2018-01-12T09:40:03.589Z,45
2018-01-12T09:41:12.376Z,50
2018-01-12T09:42:20.900Z,60
2018-01-12T09:43:29.688Z,60
2018-01-12T09:44:38.213Z,65
2018-01-12T09:45:47.005Z,65
2018-01-12T09:46:55.793Z,65
2018-01-12T09:48:04.580Z,65
2018-01-12T09:49:13.366Z,75
2018-01-12T09:50:21.894Z,75
2018-01-12T09:51:30.684Z,80
2018-01-12T09:52:39.207Z,75
2018-01-12T09:53:47.732Z,75
2018-01-12T09:54:56.789Z,80
2018-01-12T09:56:05.585Z,80
2018-01-12T09:57:14.115Z,80
2018-01-12T09:58:22.637Z,75
2018-01-12T09:59:31.160Z,80
2018-01-12T10:00:40.480Z,80
2018-01-12T10:01:49.536Z,75
2018-01-12T10:02:58.595Z,70
2018-01-12T10:04:07.384Z,70
2018-01-12T10:05:16.442Z,70
2018-01-12T10:06:24.973Z,65
2018-01-12T10:07:33.753Z,70
2018-01-12T10:08:42.539Z,65
2018-01-12T10:09:51.347Z,65
2018-01-12T10:11:00.127Z,65
2018-01-12T10:12:08.919Z,75
2018-01-12T10:13:17.718Z,80
2018-01-12T10:14:26.777Z,80
2018-01-12T10:15:35.303Z,80
2018-01-12T10:16:43.842Z,80
2018-01-12T10:17:52.627Z,70
2018-01-12T10:19:01.159Z,65
2018-01-12T10:20:09.951Z,60
2018-01-12T10:21:18.627Z,55
2018-01-12T10:22:27.696Z,55
2018-01-12T10:23:36.222Z,55
2018-01-12T10:24:45.465Z,60
2018-01-12T10:25:56.223Z,50
2018-01-12T10:27:05.284Z,50
2018-01-12T10:28:14.123Z,50
2018-01-12T10:29:22.913Z,50
2018-01-12T10:30:31.438Z,60
2018-01-12T10:31:40.226Z,70
2018-01-12T10:32:49.284Z,65
2018-01-12T10:33:58.077Z,70
2018-01-12T10:35:06.870Z,70
2018-01-12T10:36:15.394Z,65
2018-01-12T10:37:24.444Z,65
2018-01-12T10:38:33.495Z,65
2018-01-12T10:39:42.028Z,65
2018-01-12T10:40:50.822Z,65
2018-01-12T10:41:59.924Z,75
2018-01-12T10:43:09.281Z,80
2018-01-12T10:44:17.811Z,80
2018-01-12T10:45:26.862Z,80
2018-01-12T10:46:35.915Z,80
2018-01-12T10:47:44.438Z,85
2018-01-12T10:48:53.231Z,80
2018-01-12T10:50:02.486Z,80
2018-01-12T10:51:11.319Z,80
2018-01-12T10:52:20.660Z,80
2018-01-12T10:53:29.525Z,75
2018-01-12T10:54:38.050Z,75
2018-01-12T10:55:46.840Z,80
2018-01-12T10:56:56.009Z,80
2018-01-12T10:58:05.514Z,85
2018-01-12T10:59:14.040Z,80
2018-01-12T11:00:23.099Z,80
2018-01-12T11:01:31.627Z,80
2018-01-12T11:02:40.152Z,80
2018-01-12T11:03:48.941Z,80
2018-01-12T11:04:58.075Z,80
2018-01-12T11:06:06.695Z,75
2018-01-12T11:07:15.485Z,70
2018-01-12T11:08:24.276Z,65
2018-01-12T11:09:32.802Z,65
2018-01-12T11:10:41.593Z,65
2018-01-12T11:11:50.383Z,65
2018-01-12T11:12:59.543Z,65
2018-01-12T11:14:08.301Z,65
2018-01-12T11:15:17.089Z,70
2018-01-12T11:16:26.698Z,70
2018-01-12T11:17:36.525Z,70
2018-01-12T11:18:46.134Z,70
2018-01-12T11:19:55.151Z,70
2018-01-12T11:21:04.049Z,65
2018-01-12T11:22:13.566Z,60
2018-01-12T11:23:23.068Z,60
2018-01-12T11:24:32.099Z,65
2018-01-12T11:25:41.199Z,65
2018-01-12T11:26:49.733Z,65
2018-01-12T11:27:58.534Z,60
2018-01-12T11:29:07.326Z,60
2018-01-12T11:30:16.114Z,60
2018-01-12T11:31:24.682Z,55
2018-01-12T11:32:33.762Z,55
2018-01-12T11:33:42.573Z,55
2018-01-12T11:34:51.899Z,50
2018-01-12T11:36:00.426Z,50
2018-01-12T11:37:08.951Z,50
2018-01-12T11:38:17.746Z,50
2018-01-12T11:39:26.271Z,45
2018-01-12T11:40:35.330Z,45
2018-01-12T11:41:43.855Z,45
2018-01-12T11:42:52.377Z,45
2018-01-12T11:44:01.431Z,45
2018-01-12T11:45:09.974Z,50
2018-01-12T11:46:18.769Z,55
2018-01-12T11:47:27.826Z,60
2018-01-12T11:48:36.883Z,60
2018-01-12T11:49:45.945Z,60
2018-01-12T11:50:55.001Z,55
2018-01-12T11:52:03.526Z,50
2018-01-12T11:53:12.318Z,45
2018-01-12T11:54:21.104Z,45
2018-01-12T11:55:29.896Z,45
2018-01-12T11:56:38.476Z,45
2018-01-12T11:57:46.999Z,50
2018-01-12T11:58:55.987Z,55
2018-01-12T12:00:04.516Z,60
2018-01-12T12:01:13.579Z,60
2018-01-12T12:02:22.366Z,60
2018-01-12T12:03:31.158Z,60
2018-01-12T12:04:40.038Z,60
2018-01-12T12:05:49.447Z,55
2018-01-12T12:06:58.237Z,55
2018-01-12T12:08:07.026Z,55
2018-01-12T12:09:15.551Z,55
2018-01-12T12:10:24.611Z,55
2018-01-12T12:11:33.408Z,45
2018-01-12T12:12:41.927Z,45
2018-01-12T12:13:50.715Z,50
2018-01-12T12:14:59.511Z,50
2018-01-12T12:16:11.078Z,50
2018-01-12T12:17:20.618Z,50
2018-01-12T12:18:29.145Z,50
2018-01-12T12:19:37.936Z,55
2018-01-12T12:20:46.461Z,55
2018-01-12T12:21:55.999Z,55
2018-01-12T12:23:06.083Z,50
2018-01-12T12:24:15.166Z,50
2018-01-12T12:25:23.957Z,40
2018-01-12T12:26:32.747Z,40
2018-01-12T12:27:41.539Z,40
2018-01-12T12:28:50.332Z,40
2018-01-12T12:29:59.119Z,40
2018-01-12T12:31:07.920Z,45
2018-01-12T12:32:16.715Z,45
2018-01-12T12:33:25.513Z,45
2018-01-12T12:34:34.581Z,50
2018-01-12T12:35:43.376Z,45
2018-01-12T12:36:52.167Z,45
2018-01-12T12:38:00.955Z,40
2018-01-12T12:39:10.275Z,45
2018-01-12T12:40:19.066Z,45
2018-01-12T12:41:27.615Z,45
2018-01-12T12:42:36.406Z,45
2018-01-12T12:43:44.931Z,50
2018-01-12T12:44:53.457Z,50
2018-01-12T12:46:02.514Z,50
2018-01-12T12:47:11.304Z,45
2018-01-12T12:48:19.831Z,45
2018-01-12T12:49:28.354Z,45
2018-01-12T12:50:37.148Z,45
2018-01-12T12:51:45.936Z,45
2018-01-12T12:52:54.727Z,45
2018-01-12T12:54:03.794Z,45
2018-01-12T12:55:12.856Z,45
2018-01-12T12:56:22.185Z,45
2018-01-12T12:57:31.245Z,40
2018-01-12T12:58:40.300Z,40
2018-01-12T12:59:49.094Z,45
2018-01-12T13:00:57.635Z,45
2018-01-12T13:02:06.699Z,45
2018-01-12T13:03:15.491Z,45
2018-01-12T13:04:24.294Z,45
2018-01-12T13:05:33.086Z,40
2018-01-12T13:06:41.966Z,40
2018-01-12T13:07:51.023Z,40
2018-01-12T13:08:59.854Z,40
2018-01-12T13:10:08.909Z,40
2018-01-12T13:11:17.901Z,40
2018-01-12T13:12:26.958Z,45
2018-01-12T13:13:35.751Z,45
2018-01-12T13:14:44.280Z,45
2018-01-12T13:15:52.821Z,45
2018-01-12T13:17:01.880Z,45
2018-01-12T13:18:10.427Z,40
2018-01-12T13:19:19.218Z,40
2018-01-12T13:20:27.812Z,40
2018-01-12T13:21:36.446Z,40
2018-01-12T13:22:44.969Z,40
2018-01-12T13:23:53.505Z,40
2018-01-12T13:25:02.651Z,40
2018-01-12T13:26:11.458Z,40
2018-01-12T13:27:20.247Z,35
2018-01-12T13:28:28.862Z,35
2018-01-12T13:29:37.974Z,35
2018-01-12T13:30:46.774Z,35
2018-01-12T13:31:55.310Z,40
2018-01-12T13:33:03.857Z,40
2018-01-12T13:34:12.650Z,40
2018-01-12T13:35:21.442Z,40
2018-01-12T13:36:30.264Z,40
2018-01-12T13:37:39.313Z,40
2018-01-12T13:38:48.103Z,40
2018-01-12T13:39:57.704Z,40
2018-01-12T13:41:06.576Z,40
2018-01-12T13:42:15.104Z,35
2018-01-12T13:43:23.630Z,40
2018-01-12T13:44:32.460Z,40
2018-01-12T13:45:41.268Z,40
2018-01-12T13:46:49.807Z,40
2018-01-12T13:47:59.150Z,35
2018-01-12T13:49:08.549Z,35
2018-01-12T13:50:17.376Z,35
2018-01-12T13:51:25.899Z,35
2018-01-12T13:52:34.487Z,35
2018-01-12T13:53:43.013Z,35
2018-01-12T13:54:51.541Z,35
2018-01-12T13:56:00.912Z,35
2018-01-12T13:57:10.105Z,30
2018-01-12T13:58:18.628Z,30
2018-01-12T13:59:27.160Z,30
2018-01-12T14:00:35.949Z,25
2018-01-12T14:01:44.738Z,25
2018-01-12T14:02:53.528Z,25
2018-01-12T14:04:02.055Z,25
2018-01-12T14:05:10.850Z,25
2018-01-12T14:06:19.640Z,30
2018-01-12T14:07:29.059Z,30
2018-01-12T14:08:38.120Z,25
2018-01-12T14:09:47.189Z,30
2018-01-12T14:10:55.981Z,30
2018-01-12T14:12:04.772Z,30
2018-01-12T14:13:13.610Z,30
2018-01-12T14:14:22.619Z,30
2018-01-12T14:15:31.418Z,35
2018-01-12T14:16:40.224Z,35
2018-01-12T14:17:49.017Z,30
2018-01-12T14:18:58.103Z,30
2018-01-12T14:20:07.171Z,30
2018-01-12T14:21:16.231Z,30
2018-01-12T14:22:25.582Z,30
2018-01-12T14:23:34.639Z,35
2018-01-12T14:24:43.437Z,35
2018-01-12T14:25:52.229Z,35
2018-01-12T14:27:01.020Z,35
2018-01-12T14:28:10.474Z,30
2018-01-12T14:29:20.533Z,30
2018-01-12T14:30:29.385Z,30
2018-01-12T14:31:37.918Z,25
2018-01-12T14:32:46.530Z,25
2018-01-12T14:33:57.193Z,25
2018-01-12T14:35:06.245Z,20
2018-01-12T14:36:17.516Z,20
2018-01-12T14:37:26.392Z,20
2018-01-12T14:38:36.488Z,20
2018-01-12T14:39:45.290Z,25
2018-01-12T14:40:53.852Z,25
2018-01-12T14:42:02.437Z,25
2018-01-12T14:43:12.148Z,25
2018-01-12T14:44:21.079Z,25
2018-01-12T14:45:29.873Z,30
2018-01-12T14:46:39.190Z,30
2018-01-12T14:47:47.983Z,25
2018-01-12T14:48:56.513Z,25
2018-01-12T14:50:05.584Z,25
2018-01-12T14:51:14.372Z,25
2018-01-12T14:52:23.321Z,25
2018-01-12T14:53:32.116Z,25
2018-01-12T14:54:40.910Z,25
2018-01-12T14:55:49.963Z,25
2018-01-12T14:56:59.017Z,25
2018-01-12T14:58:08.075Z,25
2018-01-12T14:59:16.601Z,25
2018-01-12T15:00:25.659Z,20
2018-01-12T15:01:34.518Z,20
2018-01-12T15:02:43.572Z,20
2018-01-12T15:03:52.365Z,20
2018-01-12T15:05:00.896Z,20
2018-01-12T15:06:09.963Z,15
2018-01-12T15:07:18.491Z,15
2018-01-12T15:08:27.017Z,15
2018-01-12T15:09:35.816Z,15
2018-01-12T15:10:44.626Z,15
2018-01-12T15:11:53.825Z,15
2018-01-12T15:13:02.353Z,15
2018-01-12T15:14:11.408Z,15
2018-01-12T15:15:20.498Z,15
2018-01-12T15:16:29.023Z,15
2018-01-12T15:17:37.558Z,10
2018-01-12T15:18:47.100Z,10
2018-01-12T15:19:55.894Z,10
2018-01-12T15:21:04.737Z,10
2018-01-12T15:22:13.538Z,10
2018-01-12T15:23:22.070Z,10
2018-01-12T15:24:30.595Z,5
2018-01-12T15:25:39.385Z,5
2018-01-12T15:26:48.699Z,5
2018-01-12T15:27:57.902Z,5
2018-01-12T15:29:06.936Z,5
2018-01-12T15:30:15.727Z,5
2018-01-12T15:37:36.624Z,5
2018-01-12T15:38:45.412Z,5
2018-01-12T15:39:54.731Z,5
2018-01-12T15:41:03.534Z,5
2018-01-12T15:42:12.329Z,5
2018-01-12T15:44:32.882Z,0
2018-01-12T15:45:42.134Z,0
2018-01-12T15:46:50.988Z,0
2018-01-12T15:48:00.046Z,0
2018-01-12T15:49:08.835Z,0
2018-01-12T15:50:17.624Z,0
2018-01-12T15:51:26.257Z,0
2018-01-12T15:52:35.047Z,0
2018-01-12T15:53:43.573Z,0
2018-01-12T15:54:52.625Z,0
2018-01-12T15:58:30.102Z,0
2018-01-12T15:59:38.906Z,0
2018-01-12T16:00:47.971Z,0
2018-01-12T16:01:56.498Z,0
2018-01-12T16:11:47.147Z,0
2018-01-12T16:12:56.205Z,0
2018-01-12T16:14:04.998Z,0
2018-01-12T16:15:13.788Z,0
2018-01-12T16:16:22.588Z,0
2018-01-12T16:17:31.386Z,0
2018-01-12T16:18:39.917Z,0
2018-01-12T16:19:48.710Z,0
2018-01-12T16:20:57.247Z,0
2018-01-12T16:22:06.038Z,0
2018-01-12T16:23:14.563Z,0
2018-01-12T16:24:23.097Z,0
2018-01-12T16:25:31.898Z,0
2018-01-12T16:26:41.011Z,0
2018-01-12T16:27:49.540Z,0
2018-01-12T16:28:58.335Z,0
2018-01-12T16:30:06.866Z,0
2018-01-12T16:31:15.926Z,0
2018-01-12T16:32:24.716Z,0
2018-01-12T16:33:33.774Z,0
2018-01-12T16:34:42.302Z,0
2018-01-12T16:43:18.286Z,0
2018-01-12T16:44:26.816Z,0
2018-01-12T16:45:35.879Z,0
2018-01-12T16:46:44.412Z,0
2018-01-12T16:47:53.200Z,0
2018-01-12T16:49:01.730Z,0
2018-01-12T16:50:10.522Z,0
2018-01-12T16:51:19.422Z,0
2018-01-12T16:52:28.208Z,0
2018-01-12T16:53:36.737Z,0
2018-01-12T16:54:45.267Z,0
2018-01-12T16:55:53.791Z,0
2018-01-12T16:57:02.591Z,0
2018-01-12T16:58:11.374Z,0
2018-01-12T16:59:20.169Z,0
2018-01-12T17:00:28.699Z,0
2018-01-12T17:01:37.491Z,0
2018-01-12T17:02:46.224Z,0
2018-01-12T17:03:55.547Z,0
2018-01-12T17:05:04.764Z,0
2018-01-12T17:06:13.238Z,0
2018-01-12T17:07:22.568Z,0